createdAt,value
2017-11-25T00:00:03.036Z,60.12
2017-11-25T00:01:08.069Z,61.67
2017-11-25T00:04:19.824Z,66.15
2017-11-25T00:05:24.043Z,61.60
2017-11-25T00:06:28.262Z,59.80
2017-11-25T00:07:32.515Z,54.58
2017-11-25T00:08:36.685Z,59.28
2017-11-25T00:09:41.768Z,62.00
2017-11-25T00:10:45.986Z,60.03
2017-11-25T00:11:50.465Z,54.85
2017-11-25T00:12:54.631Z,59.88
2017-11-25T00:13:59.324Z,64.50
2017-11-25T00:15:03.613Z,59.88
2017-11-25T00:16:07.745Z,62.78
2017-11-25T00:17:12.007Z,57.10
2017-11-25T00:18:16.164Z,62.78
2017-11-25T00:19:20.411Z,64.70
2017-11-25T00:20:24.611Z,71.78
2017-11-25T00:21:28.841Z,63.03
2017-11-25T00:22:33.258Z,67.25
2017-11-25T00:23:37.531Z,66.33
2017-11-25T00:24:41.735Z,68.28
2017-11-25T00:25:46.090Z,64.87
2017-11-25T00:26:50.311Z,72.53
2017-11-25T00:27:54.938Z,67.45
2017-11-25T00:28:59.951Z,69.35
2017-11-25T00:30:04.244Z,68.50
2017-11-25T00:31:08.808Z,63.20
2017-11-25T00:32:13.098Z,63.30
2017-11-25T00:33:18.284Z,64.15
2017-11-25T00:34:22.553Z,64.85
2017-11-25T00:35:26.759Z,70.27
2017-11-25T00:36:31.056Z,61.80
2017-11-25T00:37:35.213Z,64.37
2017-11-25T00:38:39.565Z,62.33
2017-11-25T00:39:43.753Z,73.53
2017-11-25T00:40:48.635Z,63.72
2017-11-25T00:41:53.085Z,70.05
2017-11-25T00:42:57.334Z,62.42
2017-11-25T00:44:01.549Z,68.80
2017-11-25T00:45:05.473Z,69.63
2017-11-25T00:46:09.638Z,70.85
2017-11-25T00:47:13.793Z,69.00
2017-11-25T00:48:19.259Z,68.67
2017-11-25T00:49:23.435Z,68.82
2017-11-25T00:50:28.340Z,68.07
2017-11-25T00:51:32.693Z,71.97
2017-11-25T00:52:36.821Z,71.45
2017-11-25T00:53:41.125Z,67.20
2017-11-25T00:54:45.369Z,67.35
2017-11-25T00:55:50.341Z,62.15
2017-11-25T00:56:54.562Z,71.18
2017-11-25T00:57:58.793Z,65.10
2017-11-25T00:59:03.021Z,69.20
2017-11-25T01:00:08.044Z,67.93
2017-11-25T01:01:12.998Z,66.45
2017-11-25T01:02:17.192Z,69.57
2017-11-25T01:03:21.344Z,69.65
2017-11-25T01:04:25.777Z,71.40
2017-11-25T01:05:30.826Z,66.72
2017-11-25T01:06:35.046Z,73.78
2017-11-25T01:07:39.311Z,70.07
2017-11-25T01:08:44.318Z,78.05
2017-11-25T01:09:48.531Z,79.62
2017-11-25T01:10:52.707Z,78.85
2017-11-25T01:11:56.882Z,75.10
2017-11-25T01:13:01.145Z,73.65
2017-11-25T01:14:05.525Z,74.18
2017-11-25T01:15:09.972Z,78.17
2017-11-25T01:16:14.242Z,74.87
2017-11-25T01:17:18.384Z,75.47
2017-11-25T01:18:23.646Z,74.12
2017-11-25T01:19:27.835Z,76.95
2017-11-25T01:20:32.822Z,72.15
2017-11-25T01:21:36.969Z,72.78
2017-11-25T01:22:41.867Z,73.80
2017-11-25T01:23:46.824Z,72.57
2017-11-25T01:24:50.972Z,75.05
2017-11-25T01:25:56.024Z,73.15
2017-11-25T01:27:01.367Z,71.72
2017-11-25T01:28:06.264Z,82.22
2017-11-25T01:29:10.435Z,68.43
2017-11-25T01:30:14.625Z,77.00
2017-11-25T01:31:18.883Z,72.65
2017-11-25T01:32:23.100Z,72.45
2017-11-25T01:33:28.080Z,70.20
2017-11-25T01:34:32.685Z,72.35
2017-11-25T01:35:37.121Z,73.70
2017-11-25T01:36:41.629Z,74.12
2017-11-25T01:37:45.806Z,80.05
2017-11-25T01:38:49.985Z,76.65
2017-11-25T01:39:54.978Z,78.22
2017-11-25T01:40:59.165Z,76.12
2017-11-25T01:42:03.512Z,74.82
2017-11-25T01:43:08.558Z,70.17
2017-11-25T01:44:12.918Z,68.60
2017-11-25T01:45:17.087Z,82.37
2017-11-25T01:46:21.287Z,77.60
2017-11-25T01:47:25.582Z,67.93
2017-11-25T01:48:29.839Z,72.37
2017-11-25T01:49:34.031Z,75.53
2017-11-25T01:50:38.386Z,82.65
2017-11-25T01:51:43.469Z,75.60
2017-11-25T01:52:48.042Z,72.30
2017-11-25T01:53:52.412Z,83.72
2017-11-25T01:54:57.514Z,86.93
2017-11-25T01:56:01.955Z,89.78
2017-11-25T01:57:07.061Z,93.50
2017-11-25T01:58:11.497Z,102.47
2017-11-25T01:59:16.922Z,100.00
2017-11-25T02:00:22.110Z,99.45
2017-11-25T02:01:26.284Z,106.85
2017-11-25T02:02:30.947Z,109.25
2017-11-25T02:03:35.101Z,101.38
2017-11-25T02:04:39.781Z,98.22
2017-11-25T02:05:44.807Z,102.80
2017-11-25T02:06:49.200Z,101.75
2017-11-25T02:07:53.894Z,91.12
2017-11-25T02:08:58.161Z,105.40
2017-11-25T02:10:02.895Z,98.15
2017-11-25T02:11:07.187Z,93.22
2017-11-25T02:12:11.388Z,94.87
2017-11-25T02:13:16.440Z,87.72
2017-11-25T02:14:21.511Z,80.05
2017-11-25T02:15:26.046Z,79.15
2017-11-25T02:16:30.939Z,76.57
2017-11-25T02:17:35.108Z,76.40
2017-11-25T02:18:39.280Z,77.40
2017-11-25T02:19:43.545Z,69.13
2017-11-25T02:20:47.843Z,58.10
2017-11-25T02:21:52.862Z,47.33
2017-11-25T02:22:57.390Z,44.80
2017-11-25T02:24:01.766Z,37.70
2017-11-25T02:25:06.116Z,32.58
2017-11-25T02:26:10.405Z,30.40
2017-11-25T02:27:14.739Z,27.10
2017-11-25T02:28:19.216Z,31.40
2017-11-25T02:29:23.777Z,25.55
2017-11-25T02:30:28.746Z,28.67
2017-11-25T02:31:32.976Z,26.45
2017-11-25T02:32:37.747Z,29.70
2017-11-25T02:33:41.950Z,20.30
2017-11-25T02:34:46.305Z,22.02
2017-11-25T02:35:50.871Z,19.83
2017-11-25T02:36:56.061Z,21.55
2017-11-25T02:38:01.135Z,21.58
2017-11-25T02:39:06.434Z,20.08
2017-11-25T02:40:11.937Z,19.02
2017-11-25T02:41:16.405Z,16.15
2017-11-25T02:42:20.693Z,19.17
2017-11-25T02:43:25.366Z,12.80
2017-11-25T02:44:29.936Z,17.85
2017-11-25T02:45:34.333Z,13.95
2017-11-25T02:46:38.608Z,15.88
2017-11-25T02:47:43.246Z,12.45
2017-11-25T02:48:47.805Z,16.45
2017-11-25T02:49:52.292Z,12.55
2017-11-25T02:50:56.869Z,16.08
2017-11-25T02:52:02.576Z,13.57
2017-11-25T02:53:07.287Z,10.57
2017-11-25T02:54:11.676Z,11.65
2017-11-25T02:55:16.832Z,15.73
2017-11-25T02:56:21.120Z,10.83
2017-11-25T02:57:26.161Z,13.35
2017-11-25T02:58:30.365Z,12.55
2017-11-25T02:59:34.697Z,10.63
2017-11-25T03:00:40.617Z,10.82
2017-11-25T03:01:44.908Z,14.48
2017-11-25T03:02:49.129Z,15.07
2017-11-25T03:03:53.626Z,15.50
2017-11-25T03:04:58.154Z,14.90
2017-11-25T03:06:02.349Z,11.90
2017-11-25T03:07:06.878Z,13.43
2017-11-25T03:08:11.094Z,18.97
2017-11-25T03:09:15.286Z,12.27
2017-11-25T03:10:19.759Z,12.63
2017-11-25T03:11:24.032Z,14.87
2017-11-25T03:12:29.435Z,11.98
2017-11-25T03:13:33.614Z,10.95
2017-11-25T03:14:38.109Z,14.00
2017-11-25T03:15:42.454Z,11.88
2017-11-25T03:16:46.850Z,11.27
2017-11-25T03:17:51.297Z,13.13
2017-11-25T03:18:55.621Z,8.90
2017-11-25T03:20:00.607Z,11.68
2017-11-25T03:21:05.297Z,10.80
2017-11-25T03:22:09.740Z,12.93
2017-11-25T03:23:14.350Z,11.32
2017-11-25T03:24:18.561Z,10.77
2017-11-25T03:25:23.466Z,11.75
2017-11-25T03:26:28.008Z,10.17
2017-11-25T03:27:32.266Z,7.78
2017-11-25T03:28:36.404Z,8.77
2017-11-25T03:29:40.898Z,6.80
2017-11-25T03:30:45.511Z,6.33
2017-11-25T03:31:50.014Z,9.43
2017-11-25T03:32:54.369Z,8.13
2017-11-25T03:33:59.268Z,12.02
2017-11-25T03:35:03.502Z,5.62
2017-11-25T03:36:08.205Z,6.78
2017-11-25T03:37:13.124Z,7.18
2017-11-25T03:38:17.916Z,8.02
2017-11-25T03:39:22.124Z,5.43
2017-11-25T03:40:26.599Z,6.45
2017-11-25T03:41:31.011Z,8.38
2017-11-25T03:42:35.310Z,5.33
2017-11-25T03:43:39.853Z,3.80
2017-11-25T03:44:44.622Z,5.90
2017-11-25T03:45:49.521Z,8.25
2017-11-25T03:46:54.076Z,5.57
2017-11-25T03:47:58.245Z,4.35
2017-11-25T03:49:02.568Z,7.05
2017-11-25T03:50:07.673Z,7.00
2017-11-25T03:51:11.806Z,3.55
2017-11-25T03:52:16.025Z,6.95
2017-11-25T03:53:20.222Z,5.50
2017-11-25T03:54:25.224Z,7.35
2017-11-25T03:55:30.638Z,5.63
2017-11-25T03:56:34.960Z,5.80
2017-11-25T03:57:39.572Z,3.87
2017-11-25T03:58:44.430Z,6.30
2017-11-25T03:59:48.933Z,6.32
2017-11-25T04:00:53.550Z,5.25
2017-11-25T04:01:57.743Z,6.82
2017-11-25T04:03:02.681Z,6.90
2017-11-25T04:04:06.886Z,3.87
2017-11-25T04:05:11.186Z,3.67
2017-11-25T04:06:15.347Z,6.93
2017-11-25T04:07:19.519Z,5.23
2017-11-25T04:08:23.704Z,4.12
2017-11-25T04:09:27.885Z,3.78
2017-11-25T04:10:33.088Z,6.18
2017-11-25T04:11:37.592Z,4.30
2017-11-25T04:12:41.762Z,6.32
2017-11-25T04:13:46.217Z,4.62
2017-11-25T04:14:50.519Z,4.75
2017-11-25T04:15:54.987Z,4.80
2017-11-25T04:16:59.246Z,4.57
2017-11-25T04:18:05.112Z,5.55
2017-11-25T04:19:10.009Z,4.35
2017-11-25T04:20:14.709Z,3.80
2017-11-25T04:21:19.110Z,4.47
2017-11-25T04:22:23.286Z,7.15
2017-11-25T04:23:27.714Z,5.82
2017-11-25T04:24:32.029Z,3.60
2017-11-25T04:25:36.274Z,4.53
2017-11-25T04:26:41.373Z,4.37
2017-11-25T04:27:45.621Z,5.73
2017-11-25T04:28:49.774Z,6.78
2017-11-25T04:29:54.145Z,8.20
2017-11-25T04:30:58.332Z,5.45
2017-11-25T04:32:03.543Z,4.28
2017-11-25T04:33:08.597Z,5.45
2017-11-25T04:34:12.970Z,4.75
2017-11-25T04:35:17.092Z,3.90
2017-11-25T04:36:22.217Z,6.50
2017-11-25T04:37:26.385Z,7.12
2017-11-25T04:38:30.528Z,3.30
2017-11-25T04:39:35.528Z,3.67
2017-11-25T04:40:40.549Z,3.92
2017-11-25T04:41:44.693Z,3.65
2017-11-25T04:42:48.866Z,7.10
2017-11-25T04:43:53.220Z,7.47
2017-11-25T04:44:57.430Z,4.85
2017-11-25T04:46:02.101Z,3.92
2017-11-25T04:47:07.012Z,6.47
2017-11-25T04:48:12.111Z,6.30
2017-11-25T04:49:16.248Z,3.85
2017-11-25T04:50:21.763Z,8.27
2017-11-25T04:51:26.471Z,4.03
2017-11-25T04:52:31.210Z,7.12
2017-11-25T04:53:36.146Z,6.45
2017-11-25T04:54:41.329Z,6.35
2017-11-25T04:55:45.533Z,6.05
2017-11-25T04:56:49.693Z,6.35
2017-11-25T04:57:54.201Z,5.15
2017-11-25T04:58:58.384Z,5.03
2017-11-25T05:00:02.613Z,5.57
2017-11-25T05:01:07.790Z,5.27
2017-11-25T05:02:12.189Z,5.18
2017-11-25T05:03:16.385Z,4.47
2017-11-25T05:04:20.927Z,7.85
2017-11-25T05:05:25.165Z,5.95
2017-11-25T05:06:30.167Z,6.33
2017-11-25T05:07:34.542Z,6.68
2017-11-25T05:08:38.790Z,5.62
2017-11-25T05:09:42.986Z,9.82
2017-11-25T05:10:47.740Z,7.50
2017-11-25T05:11:52.056Z,9.50
2017-11-25T05:12:56.250Z,12.73
2017-11-25T05:14:00.412Z,8.65
2017-11-25T05:15:04.607Z,7.72
2017-11-25T05:16:08.970Z,10.48
2017-11-25T05:17:13.694Z,10.27
2017-11-25T05:18:17.967Z,9.50
2017-11-25T05:19:23.037Z,7.45
2017-11-25T05:20:27.234Z,9.85
2017-11-25T05:21:31.639Z,11.20
2017-11-25T05:22:35.837Z,11.00
2017-11-25T05:23:40.145Z,6.60
2017-11-25T05:24:44.334Z,6.60
2017-11-25T05:25:49.249Z,9.30
2017-11-25T05:26:54.911Z,8.35
2017-11-25T05:27:59.134Z,6.90
2017-11-25T05:29:03.406Z,7.80
2017-11-25T05:30:08.882Z,7.28
2017-11-25T05:31:13.473Z,9.70
2017-11-25T05:32:18.007Z,6.95
2017-11-25T05:33:22.153Z,8.75
2017-11-25T05:34:27.201Z,7.10
2017-11-25T05:35:31.512Z,8.93
2017-11-25T05:36:35.745Z,10.85
2017-11-25T05:37:40.059Z,12.13
2017-11-25T05:38:44.395Z,12.25
2017-11-25T05:39:48.554Z,10.77
2017-11-25T05:40:53.105Z,12.40
2017-11-25T05:41:57.349Z,10.68
2017-11-25T05:43:01.945Z,11.23
2017-11-25T05:44:06.962Z,10.70
2017-11-25T05:45:11.317Z,11.87
2017-11-25T05:46:15.632Z,10.60
2017-11-25T05:47:20.201Z,13.05
2017-11-25T05:48:25.249Z,12.63
2017-11-25T05:49:29.471Z,13.93
2017-11-25T05:50:33.801Z,12.90
2017-11-25T05:51:38.052Z,14.23
2017-11-25T05:52:43.017Z,15.00
2017-11-25T05:53:47.143Z,13.93
2017-11-25T05:54:51.500Z,16.52
2017-11-25T05:55:55.755Z,17.25
2017-11-25T05:57:00.293Z,21.25
2017-11-25T05:58:05.510Z,16.55
2017-11-25T05:59:09.695Z,20.15
2017-11-25T06:00:14.152Z,15.82
2017-11-25T06:01:18.368Z,16.73
2017-11-25T06:02:22.595Z,17.30
2017-11-25T06:03:26.767Z,15.23
2017-11-25T06:04:31.136Z,15.80
2017-11-25T06:05:36.106Z,20.65
2017-11-25T06:06:40.283Z,12.20
2017-11-25T06:07:45.519Z,14.15
2017-11-25T06:08:50.463Z,15.02
2017-11-25T06:09:54.857Z,21.52
2017-11-25T06:10:59.750Z,17.40
2017-11-25T06:12:03.950Z,17.05
2017-11-25T06:13:08.664Z,20.52
2017-11-25T06:14:12.981Z,21.75
2017-11-25T06:15:17.120Z,12.55
2017-11-25T06:16:22.237Z,14.73
2017-11-25T06:17:27.185Z,17.17
2017-11-25T06:18:31.461Z,16.60
2017-11-25T06:19:35.689Z,13.40
2017-11-25T06:20:39.824Z,14.55
2017-11-25T06:21:44.082Z,15.35
2017-11-25T06:22:48.290Z,12.10
2017-11-25T06:23:52.589Z,13.68
2017-11-25T06:24:57.544Z,14.63
2017-11-25T06:26:01.887Z,17.55
2017-11-25T06:27:06.552Z,13.30
2017-11-25T06:28:12.150Z,13.20
2017-11-25T06:29:16.344Z,17.55
2017-11-25T06:30:20.594Z,16.92
2017-11-25T06:31:24.724Z,15.52
2017-11-25T06:32:28.955Z,15.85
2017-11-25T06:33:33.274Z,12.27
2017-11-25T06:34:37.558Z,14.50
2017-11-25T06:35:41.939Z,17.25
2017-11-25T06:36:46.155Z,12.60
2017-11-25T06:37:50.596Z,12.25
2017-11-25T06:38:55.260Z,14.50
2017-11-25T06:39:59.436Z,20.65
2017-11-25T06:41:04.417Z,14.23
2017-11-25T06:42:09.652Z,16.52
2017-11-25T06:43:13.950Z,18.23
2017-11-25T06:44:19.208Z,14.30
2017-11-25T06:45:31.693Z,21.30
2017-11-25T06:46:41.845Z,20.35
2017-11-25T06:47:48.311Z,15.75
2017-11-25T06:48:53.025Z,14.70
2017-11-25T06:49:57.281Z,13.97
2017-11-25T06:51:01.406Z,15.73
2017-11-25T06:52:05.545Z,15.68
2017-11-25T06:53:09.698Z,18.10
2017-11-25T06:54:14.058Z,22.40
2017-11-25T06:55:18.981Z,16.65
2017-11-25T06:56:23.877Z,19.65
2017-11-25T06:57:28.038Z,17.85
2017-11-25T06:58:32.326Z,15.23
2017-11-25T06:59:36.555Z,16.58
2017-11-25T07:00:42.310Z,16.20
2017-11-25T07:01:46.473Z,16.12
2017-11-25T07:02:50.623Z,18.25
2017-11-25T07:03:54.952Z,14.32
2017-11-25T07:04:59.118Z,18.23
2017-11-25T07:06:03.646Z,16.20
2017-11-25T07:07:07.817Z,17.12
2017-11-25T07:08:12.112Z,15.80
2017-11-25T07:09:16.284Z,24.48
2017-11-25T07:10:20.446Z,19.35
2017-11-25T07:11:24.613Z,20.65
2017-11-25T07:12:29.490Z,20.85
2017-11-25T07:13:33.928Z,22.50
2017-11-25T07:14:38.161Z,20.45
2017-11-25T07:15:43.091Z,18.05
2017-11-25T07:16:48.721Z,17.30
2017-11-25T07:17:53.315Z,21.40
2017-11-25T07:18:57.475Z,21.27
2017-11-25T07:20:03.459Z,24.95
2017-11-25T07:21:08.695Z,15.90
2017-11-25T07:22:14.132Z,18.27
2017-11-25T07:23:22.464Z,17.67
2017-11-25T07:24:26.625Z,21.57
2017-11-25T07:25:31.573Z,22.08
2017-11-25T07:26:37.553Z,22.43
2017-11-25T07:27:42.490Z,18.65
2017-11-25T07:28:48.502Z,17.87
2017-11-25T07:29:53.250Z,25.58
2017-11-25T07:30:57.466Z,24.12
2017-11-25T07:32:01.610Z,20.12
2017-11-25T07:33:06.546Z,20.60
2017-11-25T07:34:10.957Z,19.65
2017-11-25T07:35:15.295Z,21.00
2017-11-25T07:36:19.446Z,18.67
2017-11-25T07:37:24.498Z,16.33
2017-11-25T07:38:28.669Z,23.55
2017-11-25T07:39:33.159Z,18.80
2017-11-25T07:40:37.854Z,21.77
2017-11-25T07:41:42.044Z,19.25
2017-11-25T07:42:46.253Z,22.73
2017-11-25T07:43:50.422Z,19.70
2017-11-25T07:44:55.572Z,21.25
2017-11-25T07:45:59.809Z,18.25
2017-11-25T07:47:05.084Z,23.95
2017-11-25T07:48:10.655Z,17.90
2017-11-25T07:49:15.665Z,22.52
2017-11-25T07:50:19.805Z,21.73
2017-11-25T07:51:24.019Z,23.60
2017-11-25T07:52:28.185Z,20.20
2017-11-25T07:53:32.565Z,17.67
2017-11-25T07:54:36.861Z,22.90
2017-11-25T07:55:41.860Z,19.85
2017-11-25T07:56:46.717Z,17.65
2017-11-25T07:57:53.586Z,24.92
2017-11-25T07:59:02.322Z,22.08
2017-11-25T08:00:06.677Z,19.90
2017-11-25T08:01:11.646Z,19.77
2017-11-25T08:02:19.079Z,18.73
2017-11-25T08:03:23.275Z,21.43
2017-11-25T08:04:27.771Z,23.03
2017-11-25T08:05:32.376Z,21.73
2017-11-25T08:06:36.570Z,20.10
2017-11-25T08:07:40.733Z,20.17
2017-11-25T08:08:45.749Z,25.65
2017-11-25T08:09:50.126Z,22.83
2017-11-25T08:10:54.604Z,20.55
2017-11-25T08:11:58.901Z,18.10
2017-11-25T08:13:03.862Z,17.92
2017-11-25T08:14:08.172Z,19.33
2017-11-25T08:15:12.445Z,19.70
2017-11-25T08:16:16.957Z,19.92
2017-11-25T08:17:21.239Z,22.35
2017-11-25T08:18:26.158Z,18.85
2017-11-25T08:19:30.437Z,18.80
2017-11-25T08:20:35.163Z,17.95
2017-11-25T08:21:39.431Z,22.30
2017-11-25T08:22:43.663Z,21.98
2017-11-25T08:23:47.856Z,22.98
2017-11-25T08:24:52.274Z,23.08
2017-11-25T08:25:56.473Z,19.87
2017-11-25T08:27:00.650Z,20.92
2017-11-25T08:28:05.101Z,23.02
2017-11-25T08:29:09.282Z,26.85
2017-11-25T08:30:13.438Z,27.67
2017-11-25T08:31:18.455Z,23.58
2017-11-25T08:32:22.667Z,24.30
2017-11-25T08:33:27.737Z,21.23
2017-11-25T08:34:31.906Z,22.15
2017-11-25T08:35:36.986Z,21.75
2017-11-25T08:36:42.731Z,22.20
2017-11-25T08:37:46.885Z,23.52
2017-11-25T08:38:51.139Z,31.48
2017-11-25T08:39:55.780Z,23.58
2017-11-25T08:41:00.755Z,28.40
2017-11-25T08:42:05.132Z,39.70
2017-11-25T08:43:09.452Z,33.35
2017-11-25T08:44:13.632Z,22.98
2017-11-25T08:45:18.617Z,30.17
2017-11-25T08:46:23.046Z,22.42
2017-11-25T08:47:27.497Z,21.23
2017-11-25T08:48:31.696Z,23.03
2017-11-25T08:49:35.861Z,20.92
2017-11-25T08:50:40.171Z,20.50
2017-11-25T08:51:44.478Z,24.45
2017-11-25T08:52:48.864Z,21.45
2017-11-25T08:53:53.116Z,25.45
2017-11-25T08:54:58.110Z,20.07
2017-11-25T08:56:02.472Z,19.10
2017-11-25T08:57:06.659Z,27.52
2017-11-25T08:58:10.913Z,18.35
2017-11-25T08:59:15.252Z,20.00
2017-11-25T09:00:19.480Z,21.48
2017-11-25T09:01:23.740Z,23.73
2017-11-25T09:02:27.924Z,22.83
2017-11-25T09:03:32.314Z,16.60
2017-11-25T09:04:36.890Z,19.30
2017-11-25T09:05:41.075Z,16.67
2017-11-25T09:06:45.391Z,15.65
2017-11-25T09:07:49.676Z,14.30
2017-11-25T09:08:54.022Z,18.52
2017-11-25T09:09:59.059Z,20.30
2017-11-25T09:11:03.283Z,18.87
2017-11-25T09:12:07.504Z,18.17
2017-11-25T09:13:11.703Z,17.15
2017-11-25T09:14:16.092Z,17.35
2017-11-25T09:15:20.267Z,16.37
2017-11-25T09:16:25.207Z,17.52
2017-11-25T09:17:29.509Z,15.60
2017-11-25T09:18:33.955Z,16.50
2017-11-25T09:19:39.326Z,17.87
2017-11-25T09:20:44.108Z,19.42
2017-11-25T09:21:48.277Z,12.63
2017-11-25T09:22:53.311Z,15.85
2017-11-25T09:23:57.597Z,16.90
2017-11-25T09:25:02.614Z,15.35
2017-11-25T09:26:06.957Z,11.85
2017-11-25T09:27:11.250Z,13.32
2017-11-25T09:28:15.473Z,12.90
2017-11-25T09:29:19.659Z,14.82
2017-11-25T09:30:24.433Z,12.55
2017-11-25T09:31:29.038Z,13.77
2017-11-25T09:32:33.229Z,9.35
2017-11-25T09:33:37.756Z,13.18
2017-11-25T09:34:42.058Z,12.80
2017-11-25T09:35:46.269Z,12.60
2017-11-25T09:36:50.613Z,11.88
2017-11-25T09:37:55.569Z,9.77
2017-11-25T09:39:00.056Z,12.70
2017-11-25T09:40:05.043Z,16.60
2017-11-25T09:41:09.489Z,11.80
2017-11-25T09:42:13.783Z,13.95
2017-11-25T09:43:18.746Z,14.35
2017-11-25T09:44:22.934Z,10.00
2017-11-25T09:45:27.129Z,12.30
2017-11-25T09:46:32.109Z,11.45
2017-11-25T09:47:36.392Z,26.60
2017-11-25T09:48:40.620Z,16.05
2017-11-25T09:49:44.936Z,15.50
2017-11-25T09:50:49.562Z,18.45
2017-11-25T09:51:53.892Z,12.80
2017-11-25T09:52:58.077Z,12.18
2017-11-25T09:54:02.319Z,9.55
2017-11-25T09:55:06.778Z,13.70
2017-11-25T09:56:11.109Z,11.57
2017-11-25T09:57:16.121Z,12.18
2017-11-25T09:58:20.503Z,12.33
2017-11-25T09:59:24.931Z,14.32
2017-11-25T10:00:29.221Z,10.75
2017-11-25T10:01:33.514Z,11.52
2017-11-25T10:02:37.740Z,12.57
2017-11-25T10:03:41.899Z,7.55
2017-11-25T10:04:46.177Z,12.18
2017-11-25T10:05:51.132Z,8.35
2017-11-25T10:06:55.307Z,10.57
2017-11-25T10:08:00.233Z,10.75
2017-11-25T10:09:05.401Z,11.73
2017-11-25T10:10:10.702Z,6.97
2017-11-25T10:11:14.859Z,5.95
2017-11-25T10:12:19.790Z,9.07
2017-11-25T10:13:24.321Z,8.68
2017-11-25T10:14:29.272Z,6.80
2017-11-25T10:15:33.574Z,8.30
2017-11-25T10:16:37.821Z,10.70
2017-11-25T10:17:42.010Z,8.15
2017-11-25T10:18:46.162Z,7.50
2017-11-25T10:19:51.460Z,11.20
2017-11-25T10:20:55.723Z,9.70
2017-11-25T10:21:59.904Z,8.15
2017-11-25T10:23:05.526Z,9.98
2017-11-25T10:24:09.697Z,8.90
2017-11-25T10:25:14.361Z,8.33
2017-11-25T10:26:19.308Z,8.35
2017-11-25T10:27:23.462Z,9.23
2017-11-25T10:28:27.612Z,10.10
2017-11-25T10:29:31.787Z,9.05
2017-11-25T10:30:36.066Z,13.77
2017-11-25T10:31:40.756Z,12.15
2017-11-25T10:32:44.856Z,12.65
2017-11-25T10:33:49.062Z,15.93
2017-11-25T10:34:53.250Z,12.07
2017-11-25T10:35:57.629Z,9.07
2017-11-25T10:37:02.269Z,10.82
2017-11-25T10:38:06.550Z,9.85
2017-11-25T10:39:10.801Z,11.00
2017-11-25T10:40:15.019Z,12.18
2017-11-25T10:41:19.597Z,16.70
2017-11-25T10:42:24.378Z,9.15
2017-11-25T10:43:28.621Z,6.97
2017-11-25T10:44:32.936Z,9.40
2017-11-25T10:45:37.200Z,7.45
2017-11-25T10:46:41.571Z,6.53
2017-11-25T10:47:46.654Z,7.62
2017-11-25T10:48:51.606Z,6.97
2017-11-25T10:49:56.021Z,8.80
2017-11-25T10:51:00.206Z,7.28
2017-11-25T10:52:05.171Z,11.20
2017-11-25T10:53:09.808Z,7.50
2017-11-25T10:54:14.010Z,10.10
2017-11-25T10:55:25.845Z,9.80
2017-11-25T10:56:30.015Z,8.57
2017-11-25T10:57:34.267Z,6.47
2017-11-25T10:58:39.344Z,8.70
2017-11-25T10:59:44.582Z,7.22
2017-11-25T11:00:48.913Z,7.53
2017-11-25T11:01:53.135Z,9.55
2017-11-25T11:02:58.147Z,10.10
2017-11-25T11:04:02.554Z,7.93
2017-11-25T11:05:06.715Z,6.53
2017-11-25T11:06:10.958Z,4.97
2017-11-25T11:07:15.218Z,8.27
2017-11-25T11:08:19.813Z,5.60
2017-11-25T11:09:24.566Z,7.43
2017-11-25T11:10:29.910Z,8.30
2017-11-25T11:11:35.225Z,7.62
2017-11-25T11:12:39.762Z,6.95
2017-11-25T11:13:44.247Z,7.47
2017-11-25T11:14:48.605Z,7.15
2017-11-25T11:15:52.957Z,8.53
2017-11-25T11:16:57.409Z,9.02
2017-11-25T11:18:01.587Z,9.77
2017-11-25T11:19:06.582Z,9.13
2017-11-25T11:20:10.852Z,11.57
2017-11-25T11:21:15.843Z,15.75
2017-11-25T11:22:20.916Z,7.22
2017-11-25T11:23:25.152Z,7.80
2017-11-25T11:24:29.346Z,7.97
2017-11-25T11:25:33.967Z,5.65
2017-11-25T11:26:38.162Z,8.45
2017-11-25T11:27:42.350Z,7.60
2017-11-25T11:28:46.593Z,6.35
2017-11-25T11:29:50.796Z,13.93
2017-11-25T11:30:55.678Z,10.85
2017-11-25T11:31:59.895Z,12.40
2017-11-25T11:33:04.121Z,9.02
2017-11-25T11:34:08.332Z,10.48
2017-11-25T11:35:12.520Z,11.75
2017-11-25T11:36:16.911Z,8.13
2017-11-25T11:37:21.167Z,11.43
2017-11-25T11:38:26.184Z,9.05
2017-11-25T11:39:31.190Z,7.57
2017-11-25T11:40:35.610Z,8.68
2017-11-25T11:41:39.978Z,10.18
2017-11-25T11:42:44.198Z,14.20
2017-11-25T11:43:48.374Z,8.50
2017-11-25T11:44:52.754Z,8.10
2017-11-25T11:45:57.726Z,8.82
2017-11-25T11:47:01.998Z,8.20
2017-11-25T11:48:06.679Z,9.65
2017-11-25T11:49:10.921Z,7.43
2017-11-25T11:50:15.117Z,8.15
2017-11-25T11:51:19.791Z,11.77
2017-11-25T11:52:24.117Z,10.23
2017-11-25T11:53:28.310Z,6.87
2017-11-25T11:54:32.482Z,7.53
2017-11-25T11:55:36.671Z,9.35
2017-11-25T11:56:40.918Z,8.23
2017-11-25T11:57:45.289Z,8.32
2017-11-25T11:58:49.556Z,7.87
2017-11-25T11:59:54.587Z,8.57
2017-11-25T12:00:59.687Z,8.52
2017-11-25T12:02:04.060Z,8.30
2017-11-25T12:03:08.469Z,8.93
2017-11-25T12:04:12.671Z,10.30
2017-11-25T12:05:17.411Z,8.98
2017-11-25T12:06:21.669Z,7.45
2017-11-25T12:07:25.950Z,7.68
2017-11-25T12:08:30.303Z,9.27
2017-11-25T12:09:34.515Z,8.18
2017-11-25T12:10:38.920Z,8.13
2017-11-25T12:11:43.313Z,8.35
2017-11-25T12:12:48.860Z,6.95
2017-11-25T12:13:53.589Z,13.25
2017-11-25T12:14:57.835Z,11.65
2017-11-25T12:16:02.016Z,10.40
2017-11-25T12:17:06.691Z,7.82
2017-11-25T12:18:12.108Z,8.52
2017-11-25T12:19:17.142Z,11.10
2017-11-25T12:20:21.361Z,9.05
2017-11-25T12:21:28.581Z,6.95
2017-11-25T12:22:32.738Z,9.32
2017-11-25T12:23:37.006Z,8.55
2017-11-25T12:24:41.319Z,9.82
2017-11-25T12:25:46.296Z,7.70
2017-11-25T12:26:50.644Z,10.48
2017-11-25T12:27:55.180Z,8.45
2017-11-25T12:28:59.346Z,7.87
2017-11-25T12:30:03.589Z,10.05
2017-11-25T12:31:08.624Z,12.05
2017-11-25T12:32:12.879Z,12.07
2017-11-25T12:33:17.619Z,12.23
2017-11-25T12:34:22.546Z,11.20
2017-11-25T12:35:27.625Z,7.67
2017-11-25T12:36:31.942Z,8.97
2017-11-25T12:37:36.358Z,13.07
2017-11-25T12:38:40.804Z,8.82
2017-11-25T12:39:45.769Z,11.48
2017-11-25T12:40:49.952Z,12.55
2017-11-25T12:41:54.350Z,9.50
2017-11-25T12:42:58.627Z,10.27
2017-11-25T12:44:03.066Z,15.18
2017-11-25T12:45:07.669Z,9.40
2017-11-25T12:46:12.704Z,11.77
2017-11-25T12:47:17.054Z,12.27
2017-11-25T12:48:21.284Z,12.02
2017-11-25T12:49:26.493Z,7.82
2017-11-25T12:50:33.475Z,10.05
2017-11-25T12:51:38.426Z,8.80
2017-11-25T12:52:44.132Z,12.32
2017-11-25T12:53:48.482Z,12.70
2017-11-25T12:55:01.126Z,12.63
2017-11-25T12:56:05.919Z,14.57
2017-11-25T12:57:10.159Z,15.70
2017-11-25T12:58:14.737Z,11.73
2017-11-25T12:59:19.583Z,9.65
2017-11-25T13:00:24.023Z,11.73
2017-11-25T13:01:28.673Z,11.00
2017-11-25T13:02:33.148Z,12.23
2017-11-25T13:03:37.581Z,15.57
2017-11-25T13:04:42.785Z,13.73
2017-11-25T13:05:47.419Z,10.70
2017-11-25T13:06:52.247Z,13.05
2017-11-25T13:07:57.791Z,13.00
2017-11-25T13:09:03.299Z,8.30
2017-11-25T13:10:08.573Z,13.70
2017-11-25T13:11:13.345Z,13.85
2017-11-25T13:12:18.783Z,11.20
2017-11-25T13:13:24.437Z,13.98
2017-11-25T13:14:30.393Z,13.57
2017-11-25T13:15:34.997Z,10.83
2017-11-25T13:16:40.154Z,12.57
2017-11-25T13:17:44.458Z,10.85
2017-11-25T13:18:49.378Z,9.40
2017-11-25T13:19:53.687Z,9.75
2017-11-25T13:20:58.026Z,14.20
2017-11-25T13:22:02.379Z,12.97
2017-11-25T13:23:06.963Z,13.50
2017-11-25T13:24:11.311Z,12.90
2017-11-25T13:25:15.916Z,12.02
2017-11-25T13:26:20.423Z,13.75
2017-11-25T13:27:25.357Z,12.93
2017-11-25T13:28:30.879Z,11.05
2017-11-25T13:29:36.008Z,11.82
2017-11-25T13:31:11.016Z,15.93
2017-11-25T13:32:15.628Z,14.03
2017-11-25T13:33:19.986Z,13.27
2017-11-25T13:34:24.263Z,12.30
2017-11-25T13:35:29.474Z,10.85
2017-11-25T13:36:33.864Z,7.50
2017-11-25T13:37:38.121Z,8.98
2017-11-25T13:38:42.490Z,10.90
2017-11-25T13:39:46.817Z,8.23
2017-11-25T13:40:51.919Z,11.95
2017-11-25T13:41:56.970Z,10.82
2017-11-25T13:43:02.197Z,8.93
2017-11-25T13:44:07.319Z,12.10
2017-11-25T13:45:12.525Z,9.93
2017-11-25T13:46:17.034Z,10.60
2017-11-25T13:47:21.509Z,8.35
2017-11-25T13:48:26.109Z,9.50
2017-11-25T13:49:30.979Z,11.10
2017-11-25T13:50:35.394Z,10.40
2017-11-25T13:51:40.599Z,12.37
2017-11-25T13:52:45.279Z,12.82
2017-11-25T13:53:50.003Z,11.18
2017-11-25T13:54:54.583Z,14.70
2017-11-25T13:55:59.738Z,9.10
2017-11-25T13:57:04.243Z,14.38
2017-11-25T13:58:09.352Z,12.18
2017-11-25T13:59:14.931Z,9.45
2017-11-25T14:00:19.249Z,12.75
2017-11-25T14:01:25.219Z,19.45
2017-11-25T14:02:29.547Z,14.20